sensor_id;sensor_type;location;lat;lon;timestamp;P1;durP1;ratioP1;P2;durP2;ratioP2
73557;SDS011;61829;53.286;10.434;2023-06-22T00:00:58;5.88;;;3.42;;
73557;SDS011;61829;53.286;10.434;2023-06-22T00:03:31;4.50;;;2.70;;
73557;SDS011;61829;53.286;10.434;2023-06-22T00:05:57;4.45;;;3.20;;
73557;SDS011;61829;53.286;10.434;2023-06-22T00:08:23;6.00;;;3.20;;
73557;SDS011;61829;53.286;10.434;2023-06-22T00:10:49;6.75;;;3.60;;
73557;SDS011;61829;53.286;10.434;2023-06-22T00:13:15;5.20;;;3.30;;
73557;SDS011;61829;53.286;10.434;2023-06-22T00:15:43;6.60;;;3.40;;
73557;SDS011;61829;53.286;10.434;2023-06-22T00:18:10;4.65;;;3.40;;
73557;SDS011;61829;53.286;10.434;2023-06-22T00:20:36;5.78;;;3.63;;
73557;SDS011;61829;53.286;10.434;2023-06-22T00:25:37;5.05;;;2.90;;
73557;SDS011;61829;53.286;10.434;2023-06-22T00:28:05;6.53;;;3.70;;
73557;SDS011;61829;53.286;10.434;2023-06-22T00:30:34;4.40;;;3.20;;
73557;SDS011;61829;53.286;10.434;2023-06-22T00:33:01;5.82;;;3.58;;
73557;SDS011;61829;53.286;10.434;2023-06-22T00:35:27;4.68;;;2.92;;
73557;SDS011;61829;53.286;10.434;2023-06-22T00:37:56;5.47;;;3.60;;
73557;SDS011;61829;53.286;10.434;2023-06-22T00:40:31;4.68;;;3.60;;
73557;SDS011;61829;53.286;10.434;2023-06-22T00:42:57;5.75;;;3.30;;
73557;SDS011;61829;53.286;10.434;2023-06-22T00:45:25;5.00;;;3.67;;
73557;SDS011;61829;53.286;10.434;2023-06-22T00:50:19;5.40;;;3.83;;
73557;SDS011;61829;53.286;10.434;2023-06-22T00:52:51;7.13;;;3.85;;
73557;SDS011;61829;53.286;10.434;2023-06-22T00:55:19;5.60;;;3.90;;
73557;SDS011;61829;53.286;10.434;2023-06-22T00:57:47;6.43;;;3.67;;
73557;SDS011;61829;53.286;10.434;2023-06-22T01:00:14;5.07;;;3.42;;
73557;SDS011;61829;53.286;10.434;2023-06-22T01:02:43;5.72;;;3.53;;
73557;SDS011;61829;53.286;10.434;2023-06-22T01:05:14;6.40;;;3.80;;
73557;SDS011;61829;53.286;10.434;2023-06-22T01:10:32;5.00;;;3.80;;
73557;SDS011;61829;53.286;10.434;2023-06-22T01:13:16;4.32;;;3.30;;
73557;SDS011;61829;53.286;10.434;2023-06-22T01:18:30;4.45;;;3.50;;
73557;SDS011;61829;53.286;10.434;2023-06-22T01:21:02;6.43;;;4.55;;
73557;SDS011;61829;53.286;10.434;2023-06-22T01:26:25;5.75;;;3.22;;
73557;SDS011;61829;53.286;10.434;2023-06-22T01:28:54;6.13;;;3.47;;
73557;SDS011;61829;53.286;10.434;2023-06-22T01:31:26;5.32;;;3.65;;
73557;SDS011;61829;53.286;10.434;2023-06-22T01:34:02;4.88;;;3.42;;
73557;SDS011;61829;53.286;10.434;2023-06-22T01:36:30;5.68;;;3.80;;
73557;SDS011;61829;53.286;10.434;2023-06-22T01:38:58;5.75;;;3.88;;
73557;SDS011;61829;53.286;10.434;2023-06-22T01:41:25;5.65;;;3.83;;
73557;SDS011;61829;53.286;10.434;2023-06-22T01:43:53;5.80;;;4.00;;
73557;SDS011;61829;53.286;10.434;2023-06-22T01:46:21;7.18;;;4.05;;
73557;SDS011;61829;53.286;10.434;2023-06-22T01:48:48;5.82;;;3.88;;
73557;SDS011;61829;53.286;10.434;2023-06-22T01:51:15;5.72;;;3.75;;
73557;SDS011;61829;53.286;10.434;2023-06-22T01:53:41;5.68;;;4.18;;
73557;SDS011;61829;53.286;10.434;2023-06-22T01:56:08;6.90;;;4.05;;
73557;SDS011;61829;53.286;10.434;2023-06-22T01:58:35;5.35;;;3.78;;
73557;SDS011;61829;53.286;10.434;2023-06-22T02:01:09;5.40;;;3.70;;
73557;SDS011;61829;53.286;10.434;2023-06-22T02:03:42;6.10;;;4.63;;
73557;SDS011;61829;53.286;10.434;2023-06-22T02:06:15;5.18;;;3.53;;
73557;SDS011;61829;53.286;10.434;2023-06-22T02:08:48;6.00;;;3.95;;
73557;SDS011;61829;53.286;10.434;2023-06-22T02:11:18;7.63;;;3.92;;
73557;SDS011;61829;53.286;10.434;2023-06-22T02:13:45;5.85;;;4.28;;
73557;SDS011;61829;53.286;10.434;2023-06-22T02:16:12;8.27;;;4.50;;
73557;SDS011;61829;53.286;10.434;2023-06-22T02:18:38;6.35;;;3.78;;
73557;SDS011;61829;53.286;10.434;2023-06-22T02:21:06;6.70;;;3.83;;
73557;SDS011;61829;53.286;10.434;2023-06-22T02:23:32;5.25;;;4.00;;
73557;SDS011;61829;53.286;10.434;2023-06-22T02:26:01;6.13;;;4.10;;
73557;SDS011;61829;53.286;10.434;2023-06-22T02:28:28;8.18;;;3.65;;
73557;SDS011;61829;53.286;10.434;2023-06-22T02:30:54;5.40;;;3.75;;
73557;SDS011;61829;53.286;10.434;2023-06-22T02:33:20;6.53;;;4.38;;
73557;SDS011;61829;53.286;10.434;2023-06-22T02:35:46;5.80;;;3.90;;
73557;SDS011;61829;53.286;10.434;2023-06-22T02:38:14;5.65;;;3.22;;
73557;SDS011;61829;53.286;10.434;2023-06-22T02:40:40;5.45;;;3.80;;
73557;SDS011;61829;53.286;10.434;2023-06-22T02:43:06;5.22;;;3.53;;
73557;SDS011;61829;53.286;10.434;2023-06-22T02:45:32;5.50;;;3.85;;
73557;SDS011;61829;53.286;10.434;2023-06-22T02:47:58;5.85;;;3.92;;
73557;SDS011;61829;53.286;10.434;2023-06-22T02:50:24;6.13;;;3.92;;
73557;SDS011;61829;53.286;10.434;2023-06-22T02:52:50;8.02;;;4.15;;
73557;SDS011;61829;53.286;10.434;2023-06-22T02:55:16;5.78;;;3.88;;
73557;SDS011;61829;53.286;10.434;2023-06-22T02:57:42;7.45;;;4.40;;
73557;SDS011;61829;53.286;10.434;2023-06-22T03:00:10;6.13;;;4.15;;
73557;SDS011;61829;53.286;10.434;2023-06-22T03:02:43;7.68;;;4.32;;
73557;SDS011;61829;53.286;10.434;2023-06-22T03:05:12;6.75;;;4.25;;
73557;SDS011;61829;53.286;10.434;2023-06-22T03:07:40;8.48;;;4.15;;
73557;SDS011;61829;53.286;10.434;2023-06-22T03:10:08;8.75;;;4.20;;
73557;SDS011;61829;53.286;10.434;2023-06-22T03:12:35;5.22;;;4.00;;
73557;SDS011;61829;53.286;10.434;2023-06-22T03:15:02;9.25;;;4.78;;
73557;SDS011;61829;53.286;10.434;2023-06-22T03:17:28;7.72;;;5.47;;
73557;SDS011;61829;53.286;10.434;2023-06-22T03:19:54;5.55;;;4.22;;
73557;SDS011;61829;53.286;10.434;2023-06-22T03:22:20;6.82;;;4.28;;
73557;SDS011;61829;53.286;10.434;2023-06-22T03:24:46;5.28;;;3.90;;
73557;SDS011;61829;53.286;10.434;2023-06-22T03:27:12;7.10;;;4.28;;
73557;SDS011;61829;53.286;10.434;2023-06-22T03:29:38;5.80;;;3.70;;
73557;SDS011;61829;53.286;10.434;2023-06-22T03:32:04;6.55;;;3.97;;
73557;SDS011;61829;53.286;10.434;2023-06-22T03:34:32;5.35;;;3.92;;
73557;SDS011;61829;53.286;10.434;2023-06-22T03:37:03;5.70;;;3.90;;
73557;SDS011;61829;53.286;10.434;2023-06-22T03:39:29;5.40;;;3.83;;
73557;SDS011;61829;53.286;10.434;2023-06-22T03:41:55;5.22;;;4.32;;
73557;SDS011;61829;53.286;10.434;2023-06-22T03:44:21;5.88;;;4.13;;
73557;SDS011;61829;53.286;10.434;2023-06-22T03:46:47;8.27;;;4.30;;
73557;SDS011;61829;53.286;10.434;2023-06-22T03:49:13;5.40;;;3.97;;
73557;SDS011;61829;53.286;10.434;2023-06-22T03:51:38;8.15;;;4.35;;
73557;SDS011;61829;53.286;10.434;2023-06-22T03:54:05;7.47;;;4.70;;
73557;SDS011;61829;53.286;10.434;2023-06-22T03:56:30;6.97;;;4.43;;
73557;SDS011;61829;53.286;10.434;2023-06-22T03:58:57;6.93;;;5.10;;
73557;SDS011;61829;53.286;10.434;2023-06-22T04:01:23;8.30;;;4.53;;
73557;SDS011;61829;53.286;10.434;2023-06-22T04:03:49;8.48;;;5.20;;
73557;SDS011;61829;53.286;10.434;2023-06-22T04:06:15;7.40;;;5.50;;
73557;SDS011;61829;53.286;10.434;2023-06-22T04:08:41;6.78;;;5.00;;
73557;SDS011;61829;53.286;10.434;2023-06-22T04:11:07;6.40;;;4.90;;
73557;SDS011;61829;53.286;10.434;2023-06-22T04:13:33;6.90;;;4.25;;
73557;SDS011;61829;53.286;10.434;2023-06-22T04:15:59;6.80;;;4.63;;
73557;SDS011;61829;53.286;10.434;2023-06-22T04:18:27;9.60;;;5.30;;
73557;SDS011;61829;53.286;10.434;2023-06-22T04:20:52;8.45;;;5.28;;
73557;SDS011;61829;53.286;10.434;2023-06-22T04:23:18;6.68;;;4.97;;
73557;SDS011;61829;53.286;10.434;2023-06-22T04:25:44;10.82;;;5.63;;
73557;SDS011;61829;53.286;10.434;2023-06-22T04:28:10;7.95;;;5.55;;
73557;SDS011;61829;53.286;10.434;2023-06-22T04:30:37;8.88;;;6.07;;
73557;SDS011;61829;53.286;10.434;2023-06-22T04:33:12;7.35;;;5.30;;
73557;SDS011;61829;53.286;10.434;2023-06-22T04:35:39;9.50;;;5.30;;
73557;SDS011;61829;53.286;10.434;2023-06-22T04:38:08;8.32;;;5.35;;
73557;SDS011;61829;53.286;10.434;2023-06-22T04:40:34;6.85;;;4.47;;
73557;SDS011;61829;53.286;10.434;2023-06-22T04:43:00;6.85;;;4.50;;
73557;SDS011;61829;53.286;10.434;2023-06-22T04:45:28;8.02;;;5.15;;
73557;SDS011;61829;53.286;10.434;2023-06-22T04:47:55;10.10;;;5.22;;
73557;SDS011;61829;53.286;10.434;2023-06-22T04:50:20;7.57;;;5.18;;
73557;SDS011;61829;53.286;10.434;2023-06-22T04:52:47;6.72;;;4.45;;
73557;SDS011;61829;53.286;10.434;2023-06-22T04:55:13;6.68;;;4.63;;
73557;SDS011;61829;53.286;10.434;2023-06-22T04:57:44;7.10;;;4.50;;
73557;SDS011;61829;53.286;10.434;2023-06-22T05:00:23;6.78;;;4.30;;
73557;SDS011;61829;53.286;10.434;2023-06-22T05:02:49;5.65;;;3.95;;
73557;SDS011;61829;53.286;10.434;2023-06-22T05:05:16;7.72;;;4.57;;
73557;SDS011;61829;53.286;10.434;2023-06-22T05:07:43;8.70;;;4.45;;
73557;SDS011;61829;53.286;10.434;2023-06-22T05:10:10;6.45;;;4.43;;
73557;SDS011;61829;53.286;10.434;2023-06-22T05:12:38;8.40;;;4.90;;
73557;SDS011;61829;53.286;10.434;2023-06-22T05:15:05;6.55;;;4.57;;
73557;SDS011;61829;53.286;10.434;2023-06-22T05:17:33;7.50;;;4.65;;
73557;SDS011;61829;53.286;10.434;2023-06-22T05:19:59;7.10;;;4.50;;
73557;SDS011;61829;53.286;10.434;2023-06-22T05:22:25;7.43;;;4.43;;
73557;SDS011;61829;53.286;10.434;2023-06-22T05:24:51;5.72;;;4.50;;
73557;SDS011;61829;53.286;10.434;2023-06-22T05:27:17;6.70;;;3.97;;
73557;SDS011;61829;53.286;10.434;2023-06-22T05:29:43;7.90;;;4.72;;
73557;SDS011;61829;53.286;10.434;2023-06-22T05:32:09;7.03;;;4.38;;
73557;SDS011;61829;53.286;10.434;2023-06-22T05:34:35;7.75;;;4.43;;
73557;SDS011;61829;53.286;10.434;2023-06-22T05:37:01;7.05;;;5.25;;
73557;SDS011;61829;53.286;10.434;2023-06-22T05:39:27;6.28;;;5.10;;
73557;SDS011;61829;53.286;10.434;2023-06-22T05:41:54;6.75;;;4.90;;
73557;SDS011;61829;53.286;10.434;2023-06-22T05:44:19;8.93;;;5.00;;
73557;SDS011;61829;53.286;10.434;2023-06-22T05:46:46;7.22;;;4.88;;
73557;SDS011;61829;53.286;10.434;2023-06-22T05:49:13;6.53;;;4.82;;
73557;SDS011;61829;53.286;10.434;2023-06-22T05:51:40;7.38;;;4.22;;
73557;SDS011;61829;53.286;10.434;2023-06-22T05:54:07;7.40;;;4.30;;
73557;SDS011;61829;53.286;10.434;2023-06-22T05:56:34;6.80;;;4.35;;
73557;SDS011;61829;53.286;10.434;2023-06-22T05:59:00;6.50;;;4.20;;
73557;SDS011;61829;53.286;10.434;2023-06-22T06:01:26;6.93;;;4.45;;
73557;SDS011;61829;53.286;10.434;2023-06-22T06:03:52;6.38;;;4.20;;
73557;SDS011;61829;53.286;10.434;2023-06-22T06:06:18;5.63;;;4.28;;
73557;SDS011;61829;53.286;10.434;2023-06-22T06:08:49;8.52;;;4.00;;
73557;SDS011;61829;53.286;10.434;2023-06-22T06:11:15;6.20;;;3.75;;
73557;SDS011;61829;53.286;10.434;2023-06-22T06:13:41;7.75;;;3.80;;
73557;SDS011;61829;53.286;10.434;2023-06-22T06:16:06;7.10;;;3.80;;
73557;SDS011;61829;53.286;10.434;2023-06-22T06:18:32;6.50;;;4.30;;
73557;SDS011;61829;53.286;10.434;2023-06-22T06:20:59;6.57;;;4.60;;
73557;SDS011;61829;53.286;10.434;2023-06-22T06:23:24;5.95;;;3.60;;
73557;SDS011;61829;53.286;10.434;2023-06-22T06:25:50;5.65;;;3.65;;
73557;SDS011;61829;53.286;10.434;2023-06-22T06:28:16;6.20;;;3.95;;
73557;SDS011;61829;53.286;10.434;2023-06-22T06:30:42;7.28;;;3.92;;
73557;SDS011;61829;53.286;10.434;2023-06-22T06:33:08;6.63;;;3.88;;
73557;SDS011;61829;53.286;10.434;2023-06-22T06:38:00;7.22;;;4.13;;
73557;SDS011;61829;53.286;10.434;2023-06-22T06:40:26;5.50;;;3.95;;
73557;SDS011;61829;53.286;10.434;2023-06-22T06:42:52;6.82;;;3.97;;
73557;SDS011;61829;53.286;10.434;2023-06-22T06:45:19;4.78;;;3.38;;
73557;SDS011;61829;53.286;10.434;2023-06-22T06:47:49;4.53;;;3.25;;
73557;SDS011;61829;53.286;10.434;2023-06-22T06:50:16;5.05;;;3.55;;
73557;SDS011;61829;53.286;10.434;2023-06-22T06:52:42;5.20;;;3.53;;
73557;SDS011;61829;53.286;10.434;2023-06-22T06:55:09;6.78;;;3.72;;
73557;SDS011;61829;53.286;10.434;2023-06-22T06:57:38;7.50;;;3.45;;
73557;SDS011;61829;53.286;10.434;2023-06-22T07:00:05;5.53;;;4.13;;
73557;SDS011;61829;53.286;10.434;2023-06-22T07:02:40;6.13;;;3.30;;
73557;SDS011;61829;53.286;10.434;2023-06-22T07:05:08;5.25;;;3.20;;
73557;SDS011;61829;53.286;10.434;2023-06-22T07:07:36;5.05;;;3.25;;
73557;SDS011;61829;53.286;10.434;2023-06-22T07:10:03;5.03;;;3.40;;
73557;SDS011;61829;53.286;10.434;2023-06-22T07:12:33;5.90;;;3.22;;
73557;SDS011;61829;53.286;10.434;2023-06-22T07:15:01;5.10;;;3.72;;
73557;SDS011;61829;53.286;10.434;2023-06-22T07:17:33;6.30;;;3.70;;
73557;SDS011;61829;53.286;10.434;2023-06-22T07:20:00;5.75;;;3.00;;
73557;SDS011;61829;53.286;10.434;2023-06-22T07:22:29;7.88;;;3.97;;
73557;SDS011;61829;53.286;10.434;2023-06-22T07:24:55;8.02;;;3.40;;
73557;SDS011;61829;53.286;10.434;2023-06-22T07:27:21;5.28;;;3.92;;
73557;SDS011;61829;53.286;10.434;2023-06-22T07:29:47;5.15;;;3.55;;
73557;SDS011;61829;53.286;10.434;2023-06-22T07:32:13;5.15;;;3.35;;
73557;SDS011;61829;53.286;10.434;2023-06-22T07:34:39;4.97;;;3.33;;
73557;SDS011;61829;53.286;10.434;2023-06-22T07:37:05;5.60;;;3.17;;
73557;SDS011;61829;53.286;10.434;2023-06-22T07:39:31;5.57;;;3.17;;
73557;SDS011;61829;53.286;10.434;2023-06-22T07:41:58;5.15;;;3.22;;
73557;SDS011;61829;53.286;10.434;2023-06-22T07:44:25;5.05;;;3.00;;
73557;SDS011;61829;53.286;10.434;2023-06-22T07:46:51;4.35;;;2.95;;
73557;SDS011;61829;53.286;10.434;2023-06-22T07:49:17;4.50;;;2.95;;
73557;SDS011;61829;53.286;10.434;2023-06-22T07:51:45;5.10;;;3.20;;
73557;SDS011;61829;53.286;10.434;2023-06-22T07:54:11;5.78;;;3.03;;
73557;SDS011;61829;53.286;10.434;2023-06-22T07:56:39;4.50;;;2.92;;
73557;SDS011;61829;53.286;10.434;2023-06-22T07:59:06;6.05;;;3.28;;
73557;SDS011;61829;53.286;10.434;2023-06-22T08:01:34;6.00;;;3.08;;
73557;SDS011;61829;53.286;10.434;2023-06-22T08:04:01;5.75;;;3.15;;
73557;SDS011;61829;53.286;10.434;2023-06-22T08:06:28;4.75;;;3.10;;
73557;SDS011;61829;53.286;10.434;2023-06-22T08:08:55;7.47;;;3.55;;
73557;SDS011;61829;53.286;10.434;2023-06-22T08:11:24;5.38;;;3.03;;
73557;SDS011;61829;53.286;10.434;2023-06-22T08:16:17;4.50;;;3.20;;
73557;SDS011;61829;53.286;10.434;2023-06-22T08:18:43;6.57;;;3.75;;
73557;SDS011;61829;53.286;10.434;2023-06-22T08:21:09;5.38;;;3.10;;
73557;SDS011;61829;53.286;10.434;2023-06-22T08:23:36;5.07;;;3.22;;
73557;SDS011;61829;53.286;10.434;2023-06-22T08:26:08;5.15;;;3.10;;
73557;SDS011;61829;53.286;10.434;2023-06-22T08:28:34;5.25;;;3.42;;
73557;SDS011;61829;53.286;10.434;2023-06-22T08:31:02;5.57;;;3.20;;
73557;SDS011;61829;53.286;10.434;2023-06-22T08:33:29;5.22;;;3.15;;
73557;SDS011;61829;53.286;10.434;2023-06-22T08:35:56;5.40;;;3.22;;
73557;SDS011;61829;53.286;10.434;2023-06-22T08:38:23;5.50;;;3.22;;
73557;SDS011;61829;53.286;10.434;2023-06-22T08:40:50;4.35;;;2.90;;
73557;SDS011;61829;53.286;10.434;2023-06-22T08:43:16;4.88;;;2.92;;
73557;SDS011;61829;53.286;10.434;2023-06-22T08:45:41;5.22;;;3.47;;
73557;SDS011;61829;53.286;10.434;2023-06-22T08:48:08;5.20;;;3.10;;
73557;SDS011;61829;53.286;10.434;2023-06-22T08:50:34;5.32;;;3.20;;
73557;SDS011;61829;53.286;10.434;2023-06-22T08:53:00;4.85;;;3.30;;
73557;SDS011;61829;53.286;10.434;2023-06-22T08:55:26;5.82;;;3.22;;
73557;SDS011;61829;53.286;10.434;2023-06-22T08:57:52;6.90;;;3.53;;
73557;SDS011;61829;53.286;10.434;2023-06-22T09:00:18;4.55;;;2.70;;
73557;SDS011;61829;53.286;10.434;2023-06-22T09:02:46;5.53;;;2.95;;
73557;SDS011;61829;53.286;10.434;2023-06-22T09:05:12;5.05;;;3.20;;
73557;SDS011;61829;53.286;10.434;2023-06-22T09:07:38;5.43;;;3.20;;
73557;SDS011;61829;53.286;10.434;2023-06-22T09:10:07;4.55;;;2.70;;
73557;SDS011;61829;53.286;10.434;2023-06-22T09:15:12;4.25;;;3.00;;
73557;SDS011;61829;53.286;10.434;2023-06-22T09:17:41;5.70;;;2.70;;
73557;SDS011;61829;53.286;10.434;2023-06-22T09:20:07;4.22;;;2.80;;
73557;SDS011;61829;53.286;10.434;2023-06-22T09:22:36;4.82;;;2.90;;
73557;SDS011;61829;53.286;10.434;2023-06-22T09:25:02;7.97;;;3.17;;
73557;SDS011;61829;53.286;10.434;2023-06-22T09:27:29;5.03;;;2.85;;
73557;SDS011;61829;53.286;10.434;2023-06-22T09:29:55;5.38;;;2.92;;
73557;SDS011;61829;53.286;10.434;2023-06-22T09:32:21;6.88;;;3.70;;
73557;SDS011;61829;53.286;10.434;2023-06-22T09:34:46;5.30;;;3.25;;
73557;SDS011;61829;53.286;10.434;2023-06-22T09:37:12;4.90;;;3.10;;
73557;SDS011;61829;53.286;10.434;2023-06-22T09:39:38;6.47;;;2.95;;
73557;SDS011;61829;53.286;10.434;2023-06-22T09:42:04;4.03;;;2.50;;
73557;SDS011;61829;53.286;10.434;2023-06-22T09:44:31;6.90;;;3.40;;
73557;SDS011;61829;53.286;10.434;2023-06-22T09:46:57;5.00;;;3.25;;
73557;SDS011;61829;53.286;10.434;2023-06-22T09:52:18;5.50;;;3.33;;
73557;SDS011;61829;53.286;10.434;2023-06-22T09:54:43;5.57;;;3.60;;
73557;SDS011;61829;53.286;10.434;2023-06-22T09:57:09;4.85;;;3.00;;
73557;SDS011;61829;53.286;10.434;2023-06-22T09:59:35;5.43;;;3.03;;
73557;SDS011;61829;53.286;10.434;2023-06-22T10:02:01;5.72;;;3.40;;
73557;SDS011;61829;53.286;10.434;2023-06-22T10:04:27;5.13;;;2.95;;
73557;SDS011;61829;53.286;10.434;2023-06-22T10:06:53;4.55;;;2.85;;
73557;SDS011;61829;53.286;10.434;2023-06-22T10:09:19;6.35;;;3.47;;
73557;SDS011;61829;53.286;10.434;2023-06-22T10:11:46;5.35;;;3.53;;
73557;SDS011;61829;53.286;10.434;2023-06-22T10:14:12;4.70;;;3.38;;
73557;SDS011;61829;53.286;10.434;2023-06-22T10:16:38;6.45;;;3.47;;
73557;SDS011;61829;53.286;10.434;2023-06-22T10:19:06;6.28;;;3.47;;
73557;SDS011;61829;53.286;10.434;2023-06-22T10:21:32;4.72;;;3.40;;
73557;SDS011;61829;53.286;10.434;2023-06-22T10:23:58;5.15;;;3.15;;
73557;SDS011;61829;53.286;10.434;2023-06-22T10:26:29;5.40;;;3.17;;
73557;SDS011;61829;53.286;10.434;2023-06-22T10:28:55;4.32;;;3.05;;
73557;SDS011;61829;53.286;10.434;2023-06-22T10:34:36;6.45;;;3.30;;
73557;SDS011;61829;53.286;10.434;2023-06-22T10:37:02;5.30;;;3.10;;
73557;SDS011;61829;53.286;10.434;2023-06-22T10:39:28;4.40;;;3.20;;
73557;SDS011;61829;53.286;10.434;2023-06-22T10:41:54;4.22;;;2.75;;
73557;SDS011;61829;53.286;10.434;2023-06-22T10:44:21;5.40;;;3.17;;
73557;SDS011;61829;53.286;10.434;2023-06-22T10:49:13;6.22;;;3.05;;
73557;SDS011;61829;53.286;10.434;2023-06-22T10:51:39;5.70;;;3.63;;
73557;SDS011;61829;53.286;10.434;2023-06-22T10:54:07;4.68;;;3.13;;
73557;SDS011;61829;53.286;10.434;2023-06-22T10:56:33;4.85;;;3.20;;
73557;SDS011;61829;53.286;10.434;2023-06-22T10:58:59;6.38;;;3.50;;
73557;SDS011;61829;53.286;10.434;2023-06-22T11:01:25;6.32;;;3.00;;
73557;SDS011;61829;53.286;10.434;2023-06-22T11:03:51;5.53;;;3.08;;
73557;SDS011;61829;53.286;10.434;2023-06-22T11:06:16;4.70;;;3.08;;
73557;SDS011;61829;53.286;10.434;2023-06-22T11:08:43;4.45;;;3.10;;
73557;SDS011;61829;53.286;10.434;2023-06-22T11:11:10;7.30;;;3.22;;
73557;SDS011;61829;53.286;10.434;2023-06-22T11:13:36;4.32;;;2.92;;
73557;SDS011;61829;53.286;10.434;2023-06-22T11:16:02;4.82;;;3.40;;
73557;SDS011;61829;53.286;10.434;2023-06-22T11:18:28;5.65;;;3.58;;
73557;SDS011;61829;53.286;10.434;2023-06-22T11:20:54;5.43;;;3.72;;
73557;SDS011;61829;53.286;10.434;2023-06-22T11:23:20;5.20;;;3.70;;
73557;SDS011;61829;53.286;10.434;2023-06-22T11:25:46;5.72;;;3.33;;
73557;SDS011;61829;53.286;10.434;2023-06-22T11:28:12;4.43;;;3.40;;
73557;SDS011;61829;53.286;10.434;2023-06-22T11:33:04;6.88;;;3.75;;
73557;SDS011;61829;53.286;10.434;2023-06-22T11:35:30;6.88;;;3.90;;
73557;SDS011;61829;53.286;10.434;2023-06-22T11:37:56;5.60;;;4.10;;
73557;SDS011;61829;53.286;10.434;2023-06-22T11:40:22;4.97;;;3.63;;
73557;SDS011;61829;53.286;10.434;2023-06-22T11:42:48;4.80;;;3.40;;
73557;SDS011;61829;53.286;10.434;2023-06-22T11:45:14;5.20;;;3.80;;
73557;SDS011;61829;53.286;10.434;2023-06-22T11:47:40;5.82;;;3.90;;
73557;SDS011;61829;53.286;10.434;2023-06-22T11:50:06;4.78;;;3.42;;
73557;SDS011;61829;53.286;10.434;2023-06-22T11:52:33;5.55;;;3.90;;
73557;SDS011;61829;53.286;10.434;2023-06-22T11:54:59;5.00;;;3.53;;
73557;SDS011;61829;53.286;10.434;2023-06-22T11:57:25;6.15;;;3.55;;
73557;SDS011;61829;53.286;10.434;2023-06-22T11:59:51;6.78;;;3.50;;
73557;SDS011;61829;53.286;10.434;2023-06-22T12:04:43;5.65;;;3.65;;
73557;SDS011;61829;53.286;10.434;2023-06-22T12:07:09;5.63;;;3.92;;
73557;SDS011;61829;53.286;10.434;2023-06-22T12:09:35;6.15;;;3.47;;
73557;SDS011;61829;53.286;10.434;2023-06-22T12:12:02;6.60;;;3.88;;
73557;SDS011;61829;53.286;10.434;2023-06-22T12:16:54;5.03;;;4.00;;
73557;SDS011;61829;53.286;10.434;2023-06-22T12:19:20;6.55;;;3.65;;
73557;SDS011;61829;53.286;10.434;2023-06-22T12:21:46;6.40;;;3.90;;
73557;SDS011;61829;53.286;10.434;2023-06-22T12:24:12;6.28;;;4.00;;
73557;SDS011;61829;53.286;10.434;2023-06-22T12:26:38;7.53;;;4.40;;
73557;SDS011;61829;53.286;10.434;2023-06-22T12:29:04;6.47;;;4.03;;
73557;SDS011;61829;53.286;10.434;2023-06-22T12:31:29;8.50;;;4.20;;
73557;SDS011;61829;53.286;10.434;2023-06-22T12:33:56;5.45;;;3.85;;
73557;SDS011;61829;53.286;10.434;2023-06-22T12:36:21;5.00;;;3.90;;
73557;SDS011;61829;53.286;10.434;2023-06-22T12:38:47;4.68;;;3.83;;
73557;SDS011;61829;53.286;10.434;2023-06-22T12:41:13;4.72;;;3.70;;
73557;SDS011;61829;53.286;10.434;2023-06-22T12:46:33;7.27;;;4.20;;
73557;SDS011;61829;53.286;10.434;2023-06-22T12:49:03;5.70;;;3.58;;
73557;SDS011;61829;53.286;10.434;2023-06-22T12:51:29;6.40;;;4.18;;
73557;SDS011;61829;53.286;10.434;2023-06-22T12:56:22;5.75;;;3.67;;
73557;SDS011;61829;53.286;10.434;2023-06-22T12:58:48;4.65;;;3.70;;
73557;SDS011;61829;53.286;10.434;2023-06-22T13:01:14;5.50;;;3.88;;
73557;SDS011;61829;53.286;10.434;2023-06-22T13:03:41;5.85;;;4.10;;
73557;SDS011;61829;53.286;10.434;2023-06-22T13:06:07;6.43;;;4.03;;
73557;SDS011;61829;53.286;10.434;2023-06-22T13:08:33;6.05;;;4.07;;
73557;SDS011;61829;53.286;10.434;2023-06-22T13:10:59;6.90;;;4.10;;
73557;SDS011;61829;53.286;10.434;2023-06-22T13:13:25;5.10;;;4.22;;
73557;SDS011;61829;53.286;10.434;2023-06-22T13:15:52;4.88;;;4.25;;
73557;SDS011;61829;53.286;10.434;2023-06-22T13:18:19;5.78;;;4.68;;
73557;SDS011;61829;53.286;10.434;2023-06-22T13:20:45;5.68;;;4.53;;
73557;SDS011;61829;53.286;10.434;2023-06-22T13:23:12;5.68;;;4.35;;
73557;SDS011;61829;53.286;10.434;2023-06-22T13:25:38;6.93;;;4.30;;
73557;SDS011;61829;53.286;10.434;2023-06-22T13:28:05;4.90;;;4.07;;
73557;SDS011;61829;53.286;10.434;2023-06-22T13:30:30;5.93;;;4.60;;
73557;SDS011;61829;53.286;10.434;2023-06-22T13:32:57;5.72;;;4.25;;
73557;SDS011;61829;53.286;10.434;2023-06-22T13:35:23;6.30;;;4.18;;
73557;SDS011;61829;53.286;10.434;2023-06-22T13:37:52;8.25;;;4.63;;
73557;SDS011;61829;53.286;10.434;2023-06-22T13:40:18;5.68;;;4.13;;
73557;SDS011;61829;53.286;10.434;2023-06-22T13:42:44;5.55;;;3.92;;
73557;SDS011;61829;53.286;10.434;2023-06-22T13:45:09;5.13;;;4.20;;
73557;SDS011;61829;53.286;10.434;2023-06-22T13:47:36;6.10;;;4.43;;
73557;SDS011;61829;53.286;10.434;2023-06-22T13:50:02;7.20;;;4.00;;
73557;SDS011;61829;53.286;10.434;2023-06-22T13:52:28;7.03;;;4.07;;
73557;SDS011;61829;53.286;10.434;2023-06-22T13:54:54;6.45;;;4.68;;
73557;SDS011;61829;53.286;10.434;2023-06-22T13:57:20;6.75;;;4.95;;
73557;SDS011;61829;53.286;10.434;2023-06-22T13:59:46;5.82;;;4.57;;
73557;SDS011;61829;53.286;10.434;2023-06-22T14:02:12;6.75;;;4.85;;
73557;SDS011;61829;53.286;10.434;2023-06-22T14:04:38;5.43;;;4.85;;
73557;SDS011;61829;53.286;10.434;2023-06-22T14:07:04;5.82;;;4.60;;
73557;SDS011;61829;53.286;10.434;2023-06-22T14:09:30;6.22;;;4.93;;
73557;SDS011;61829;53.286;10.434;2023-06-22T14:11:56;5.68;;;4.82;;
73557;SDS011;61829;53.286;10.434;2023-06-22T14:14:21;5.80;;;4.55;;
73557;SDS011;61829;53.286;10.434;2023-06-22T14:16:47;6.55;;;4.63;;
73557;SDS011;61829;53.286;10.434;2023-06-22T14:19:16;5.45;;;4.55;;
73557;SDS011;61829;53.286;10.434;2023-06-22T14:21:43;7.10;;;4.75;;
73557;SDS011;61829;53.286;10.434;2023-06-22T14:24:09;5.35;;;4.47;;
73557;SDS011;61829;53.286;10.434;2023-06-22T14:26:35;6.72;;;4.47;;
73557;SDS011;61829;53.286;10.434;2023-06-22T14:29:01;6.13;;;4.18;;
73557;SDS011;61829;53.286;10.434;2023-06-22T14:31:27;6.50;;;4.38;;
73557;SDS011;61829;53.286;10.434;2023-06-22T14:33:52;6.03;;;4.28;;
73557;SDS011;61829;53.286;10.434;2023-06-22T14:36:18;7.15;;;4.80;;
73557;SDS011;61829;53.286;10.434;2023-06-22T14:38:44;6.70;;;4.55;;
73557;SDS011;61829;53.286;10.434;2023-06-22T14:41:11;6.75;;;4.43;;
73557;SDS011;61829;53.286;10.434;2023-06-22T14:43:37;7.32;;;4.70;;
73557;SDS011;61829;53.286;10.434;2023-06-22T14:46:03;7.82;;;4.60;;
73557;SDS011;61829;53.286;10.434;2023-06-22T14:48:29;5.72;;;4.53;;
73557;SDS011;61829;53.286;10.434;2023-06-22T14:50:56;6.50;;;4.63;;
73557;SDS011;61829;53.286;10.434;2023-06-22T14:53:22;4.88;;;4.13;;
73557;SDS011;61829;53.286;10.434;2023-06-22T14:55:49;6.25;;;4.57;;
73557;SDS011;61829;53.286;10.434;2023-06-22T14:58:14;5.78;;;4.40;;
73557;SDS011;61829;53.286;10.434;2023-06-22T15:00:40;7.60;;;4.50;;
73557;SDS011;61829;53.286;10.434;2023-06-22T15:03:06;6.22;;;4.40;;
73557;SDS011;61829;53.286;10.434;2023-06-22T15:05:36;6.20;;;4.45;;
73557;SDS011;61829;53.286;10.434;2023-06-22T15:08:02;6.93;;;4.50;;
73557;SDS011;61829;53.286;10.434;2023-06-22T15:10:28;4.93;;;4.07;;
73557;SDS011;61829;53.286;10.434;2023-06-22T15:12:54;5.30;;;4.70;;